Home > Products > Valid Products > TAF

000
FTUS45 KBOU 280812 AAA
TAFDEN
TAF AMD
KDEN 280812Z 2808/2912 22010KT P6SM SCT140 BKN220
     FM281800 24012KT P6SM FEW090 SCT140 BKN220
     FM290100 20010KT P6SM FEW120 SCT220=



000
FTUS45 KBOU 280812 AAA
TAFDEN
TAF AMD
KDEN 280812Z 2808/2912 22010KT P6SM SCT140 BKN220
     FM281800 24012KT P6SM FEW090 SCT140 BKN220
     FM290100 20010KT P6SM FEW120 SCT220=



000
FTUS45 KBOU 280659 AAA
TAFBJC
TAF AMD
KBJC 280659Z 2807/2906 20010KT P6SM SCT150 BKN200
     FM280900 26015KT P6SM FEW080 BKN150
     FM281700 28018G28KT P6SM SCT120 BKN220
     FM290300 25012KT P6SM FEW120 SCT220=



000
FTUS45 KBOU 280659 AAA
TAFBJC
TAF AMD
KBJC 280659Z 2807/2906 20010KT P6SM SCT150 BKN200
     FM280900 26015KT P6SM FEW080 BKN150
     FM281700 28018G28KT P6SM SCT120 BKN220
     FM290300 25012KT P6SM FEW120 SCT220=



000
FTUS45 KBOU 280543 CCA
TAFBJC
TAF COR
KBJC 280543Z 2806/2906 26015KT P6SM FEW080 BKN150
     FM281700 28018G28KT P6SM SCT120 BKN220
     FM290300 25012KT P6SM FEW120 SCT220=



000
FTUS45 KBOU 280543 CCA
TAFBJC
TAF COR
KBJC 280543Z 2806/2906 26015KT P6SM FEW080 BKN150
     FM281700 28018G28KT P6SM SCT120 BKN220
     FM290300 25012KT P6SM FEW120 SCT220=



000
FTUS45 KBOU 280520
TAFAPA
TAF
KAPA 280520Z 2806/2906 15008KT P6SM SCT140 BKN220
     FM281800 24012KT P6SM FEW090 SCT120 BKN220
     FM290100 19010KT P6SM FEW120 SCT220=



000
FTUS45 KBOU 280520
TAFBJC
TAF
KBJC 280520Z 2806/2906 21012KT P6SM FEW080 BKN150
     FM281700 28018G28KT P6SM SCT120 BKN220
     FM290300 25012KT P6SM FEW120 SCT220=



000
FTUS45 KBOU 280520
TAFBJC
TAF
KBJC 280520Z 2806/2906 21012KT P6SM FEW080 BKN150
     FM281700 28018G28KT P6SM SCT120 BKN220
     FM290300 25012KT P6SM FEW120 SCT220=



000
FTUS45 KBOU 280520
TAFDEN
TAF
KDEN 280520Z 2806/2912 17008KT P6SM SCT140 BKN220
     FM281800 24012KT P6SM FEW090 SCT140 BKN220
     FM290100 20010KT P6SM FEW120 SCT220=



000
FTUS45 KBOU 280520
TAFAPA
TAF
KAPA 280520Z 2806/2906 15008KT P6SM SCT140 BKN220
     FM281800 24012KT P6SM FEW090 SCT120 BKN220
     FM290100 19010KT P6SM FEW120 SCT220=



000
FTUS45 KBOU 280520
TAFDEN
TAF
KDEN 280520Z 2806/2912 17008KT P6SM SCT140 BKN220
     FM281800 24012KT P6SM FEW090 SCT140 BKN220
     FM290100 20010KT P6SM FEW120 SCT220=



000
FTUS45 KBOU 280500 AAC
TAFBJC
TAF AMD
KBJC 280500Z 2805/2824 21012KT P6SM FEW080 BKN150
     FM281700 28015G25KT P6SM SCT120 BKN220=



000
FTUS45 KBOU 280500 AAC
TAFBJC
TAF AMD
KBJC 280500Z 2805/2824 21012KT P6SM FEW080 BKN150
     FM281700 28015G25KT P6SM SCT120 BKN220=



000
FTUS45 KBOU 280459 AAC
TAFDEN
TAF AMD
KDEN 280459Z 2805/2906 17007KT P6SM SCT140 BKN220=



000
FTUS45 KBOU 280459 AAC
TAFDEN
TAF AMD
KDEN 280459Z 2805/2906 17007KT P6SM SCT140 BKN220=



000
FTUS45 KBOU 280259 AAB
TAFBJC
TAF AMD
KBJC 280259Z 2803/2824 27015KT P6SM FEW080 BKN150
      TEMPO 2803/2807 29018G25KT
     FM281700 28015G25KT P6SM SCT120 BKN220=



000
FTUS45 KBOU 280259 AAB
TAFBJC
TAF AMD
KBJC 280259Z 2803/2824 27015KT P6SM FEW080 BKN150
      TEMPO 2803/2807 29018G25KT
     FM281700 28015G25KT P6SM SCT120 BKN220=



000
FTUS45 KBOU 280205 AAB
TAFDEN
TAF AMD
KDEN 280205Z 2802/2906 29011KT P6SM FEW120 BKN220
     FM280400 19011KT P6SM SCT120 BKN220=



000
FTUS45 KBOU 280205 AAB
TAFDEN
TAF AMD
KDEN 280205Z 2802/2906 29011KT P6SM FEW120 BKN220
     FM280400 19011KT P6SM SCT120 BKN220=



000
FTUS45 KBOU 280116 AAA
TAFBJC
TAF AMD
KBJC 280116Z 2801/2824 32012G22KT P6SM FEW080 BKN150
     FM280300 27013KT P6SM SCT150 BKN220
      TEMPO 2803/2807 29018G25KT
     FM281700 28015G25KT P6SM SCT120 BKN220=



000
FTUS45 KBOU 280116 AAA
TAFBJC
TAF AMD
KBJC 280116Z 2801/2824 32012G22KT P6SM FEW080 BKN150
     FM280300 27013KT P6SM SCT150 BKN220
      TEMPO 2803/2807 29018G25KT
     FM281700 28015G25KT P6SM SCT120 BKN220=



000
FTUS45 KBOU 280028 AAA
TAFDEN
TAF AMD
KDEN 280028Z 2800/2906 29013KT P6SM FEW110 SCT150 BKN220
      TEMPO 2800/2802 29013G23KT
     FM280200 19011KT P6SM SCT120 BKN220=



000
FTUS45 KBOU 280028 AAA
TAFDEN
TAF AMD
KDEN 280028Z 2800/2906 29013KT P6SM FEW110 SCT150 BKN220
      TEMPO 2800/2802 29013G23KT
     FM280200 19011KT P6SM SCT120 BKN220=



000
FTUS45 KBOU 272320
TAFDEN
TAF
KDEN 272320Z 2800/2906 29013KT P6SM FEW110 SCT150 BKN220
     FM280200 19011KT P6SM SCT120 BKN220=



000
FTUS45 KBOU 272320
TAFBJC
TAF
KBJC 272320Z 2800/2824 29011G22KT P6SM FEW110 SCT150 BKN220
     FM280300 27013KT P6SM SCT120 BKN220
      TEMPO 2803/2807 29018G25KT
     FM281700 28015G25KT P6SM SCT120 BKN220=



000
FTUS45 KBOU 272320
TAFAPA
TAF
KAPA 272320Z 2800/2824 VRB04KT P6SM FEW110 SCT150 BKN220
     FM280200 18010KT P6SM SCT120 BKN220=



000
FTUS45 KBOU 272320
TAFDEN
TAF
KDEN 272320Z 2800/2906 29013KT P6SM FEW110 SCT150 BKN220
     FM280200 19011KT P6SM SCT120 BKN220=



000
FTUS45 KBOU 272320
TAFBJC
TAF
KBJC 272320Z 2800/2824 29011G22KT P6SM FEW110 SCT150 BKN220
     FM280300 27013KT P6SM SCT120 BKN220
      TEMPO 2803/2807 29018G25KT
     FM281700 28015G25KT P6SM SCT120 BKN220=



000
FTUS45 KBOU 272320
TAFAPA
TAF
KAPA 272320Z 2800/2824 VRB04KT P6SM FEW110 SCT150 BKN220
     FM280200 18010KT P6SM SCT120 BKN220=



000
FTUS45 KBOU 272107 AAA
TAFAPA
TAF AMD
KAPA 272107Z 2721/2818 01006KT P6SM FEW120 SCT150 BKN200
     FM280200 19010KT P6SM FEW140 BKN200=



000
FTUS45 KBOU 272102 AAB
TAFDEN
TAF AMD
KDEN 272102Z 2721/2824 28018G25KT P6SM FEW110 SCT150 BKN220
     FM272300 25013KT P6SM SCT120 BKN200
     FM280200 21011KT P6SM FEW120 BKN200=



000
FTUS45 KBOU 272102 AAB
TAFDEN
TAF AMD
KDEN 272102Z 2721/2824 28018G25KT P6SM FEW110 SCT150 BKN220
     FM272300 25013KT P6SM SCT120 BKN200
     FM280200 21011KT P6SM FEW120 BKN200=



000
FTUS45 KBOU 271854 AAA
TAFDEN
TAF AMD
KDEN 271854Z 2719/2824 28013G25KT P6SM FEW150 BKN200
     FM272300 25013KT P6SM SCT120 BKN200
     FM280200 21011KT P6SM FEW120 BKN200=



000
FTUS45 KBOU 271854 AAA
TAFDEN
TAF AMD
KDEN 271854Z 2719/2824 28013G25KT P6SM FEW150 BKN200
     FM272300 25013KT P6SM SCT120 BKN200
     FM280200 21011KT P6SM FEW120 BKN200=



000
FTUS45 KBOU 271804 AAA
TAFBJC
TAF AMD
KBJC 271804Z 2718/2818 26011G20KT P6SM SCT140 BKN200
     FM280100 25012KT P6SM FEW120 BKN200=



000
FTUS45 KBOU 271804 AAA
TAFBJC
TAF AMD
KBJC 271804Z 2718/2818 26011G20KT P6SM SCT140 BKN200
     FM280100 25012KT P6SM FEW120 BKN200=



000
FTUS45 KBOU 271729
TAFBJC
TAF
KBJC 271729Z 2718/2818 26022G32KT P6SM SCT140 BKN200
     FM280100 25012KT P6SM FEW120 BKN200=



000
FTUS45 KBOU 271729
TAFAPA
TAF
KAPA 271729Z 2718/2818 24011KT P6SM SCT140 BKN200
     FM271900 25013KT P6SM SCT140 BKN200
     FM280200 19010KT P6SM FEW140 BKN200=



000
FTUS45 KBOU 271729
TAFDEN
TAF
KDEN 271729Z 2718/2824 22011KT P6SM FEW150 BKN200
     FM272000 25013KT P6SM SCT120 BKN200
     FM280200 21011KT P6SM FEW120 BKN200=



000
FTUS45 KBOU 271729
TAFAPA
TAF
KAPA 271729Z 2718/2818 24011KT P6SM SCT140 BKN200
     FM271900 25013KT P6SM SCT140 BKN200
     FM280200 19010KT P6SM FEW140 BKN200=



000
FTUS45 KBOU 271729
TAFDEN
TAF
KDEN 271729Z 2718/2824 22011KT P6SM FEW150 BKN200
     FM272000 25013KT P6SM SCT120 BKN200
     FM280200 21011KT P6SM FEW120 BKN200=



000
FTUS45 KBOU 271729
TAFBJC
TAF
KBJC 271729Z 2718/2818 26022G32KT P6SM SCT140 BKN200
     FM280100 25012KT P6SM FEW120 BKN200=



000
FTUS45 KBOU 271702 AAB
TAFBJC
TAF AMD
KBJC 271702Z 2717/2812 27022G32KT P6SM FEW140 BKN200
     FM272300 27012KT P6SM SCT120 BKN200
     FM280100 25010KT P6SM SCT120 BKN200=



000
FTUS45 KBOU 271702 AAB
TAFBJC
TAF AMD
KBJC 271702Z 2717/2812 27022G32KT P6SM FEW140 BKN200
     FM272300 27012KT P6SM SCT120 BKN200
     FM280100 25010KT P6SM SCT120 BKN200=



000
FTUS45 KBOU 271457 AAB
TAFDEN
TAF AMD
KDEN 271457Z 2715/2818 22013KT P6SM FEW150 BKN200
     FM272000 25013KT P6SM SCT120 BKN200
     FM280200 21011KT P6SM SCT120 BKN200=



000
FTUS45 KBOU 271457 AAB
TAFDEN
TAF AMD
KDEN 271457Z 2715/2818 22013KT P6SM FEW150 BKN200
     FM272000 25013KT P6SM SCT120 BKN200
     FM280200 21011KT P6SM SCT120 BKN200=



000
FTUS45 KBOU 271408 AAA
TAFBJC
TAF AMD
KBJC 271408Z 2714/2812 25011KT P6SM FEW120 BKN200
      TEMPO 2714/2717 27022G32KT
     FM271700 27012KT P6SM SCT120 BKN200
     FM280100 25010KT P6SM SCT120 BKN200=



000
FTUS45 KBOU 271408 AAA
TAFBJC
TAF AMD
KBJC 271408Z 2714/2812 25011KT P6SM FEW120 BKN200
      TEMPO 2714/2717 27022G32KT
     FM271700 27012KT P6SM SCT120 BKN200
     FM280100 25010KT P6SM SCT120 BKN200=



000
FTUS45 KBOU 271300 AAA
TAFDEN
TAF AMD
KDEN 271300Z 2713/2818 19013KT P6SM FEW120 BKN200
     FM271500 19007KT P6SM FEW120 BKN200
     FM272000 25011KT P6SM SCT120 BKN200
     FM280200 21011KT P6SM SCT120 BKN200=



000
FTUS45 KBOU 271300 AAA
TAFDEN
TAF AMD
KDEN 271300Z 2713/2818 19013KT P6SM FEW120 BKN200
     FM271500 19007KT P6SM FEW120 BKN200
     FM272000 25011KT P6SM SCT120 BKN200
     FM280200 21011KT P6SM SCT120 BKN200=



000
FTUS45 KBOU 271121
TAFBJC
TAF
KBJC 271121Z 2712/2812 24011KT P6SM FEW120 BKN200
     FM271700 27012KT P6SM SCT120 BKN200
     FM280100 25010KT P6SM SCT120 BKN200=



000
FTUS45 KBOU 271121
TAFAPA
TAF
KAPA 271121Z 2712/2812 19008KT P6SM FEW120 BKN200
     FM271900 25010KT P6SM SCT120 BKN200
     FM280200 21010KT P6SM SCT120 BKN200=



000
FTUS45 KBOU 271121
TAFDEN
TAF
KDEN 271121Z 2712/2818 22013KT P6SM FEW120 BKN200
     FM271500 19007KT P6SM FEW120 BKN200
     FM272000 25011KT P6SM SCT120 BKN200
     FM280200 21011KT P6SM SCT120 BKN200=



000
FTUS45 KBOU 271121
TAFDEN
TAF
KDEN 271121Z 2712/2818 22013KT P6SM FEW120 BKN200
     FM271500 19007KT P6SM FEW120 BKN200
     FM272000 25011KT P6SM SCT120 BKN200
     FM280200 21011KT P6SM SCT120 BKN200=



000
FTUS45 KBOU 271121
TAFAPA
TAF
KAPA 271121Z 2712/2812 19008KT P6SM FEW120 BKN200
     FM271900 25010KT P6SM SCT120 BKN200
     FM280200 21010KT P6SM SCT120 BKN200=



000
FTUS45 KBOU 271121
TAFBJC
TAF
KBJC 271121Z 2712/2812 24011KT P6SM FEW120 BKN200
     FM271700 27012KT P6SM SCT120 BKN200
     FM280100 25010KT P6SM SCT120 BKN200=



000
FTUS45 KBOU 271000 AAB
TAFDEN
TAF AMD
KDEN 271000Z 2710/2812 19010KT P6SM SCT120 BKN200
     FM272100 25011KT P6SM SCT110 BKN160
     FM280200 21010KT P6SM SCT200=



000
FTUS45 KBOU 271000 AAB
TAFDEN
TAF AMD
KDEN 271000Z 2710/2812 19010KT P6SM SCT120 BKN200
     FM272100 25011KT P6SM SCT110 BKN160
     FM280200 21010KT P6SM SCT200=



000
FTUS45 KBOU 271000 AAB
TAFDEN
TAF AMD
KDEN 271000Z 2710/2812 19010KT P6SM SCT120 BKN200
     FM272100 25011KT P6SM SCT110 BKN160
     FM280200 21010KT P6SM SCT200=



000
FTUS45 KBOU 270857 AAA
TAFDEN
TAF AMD
KDEN 270857Z 2709/2812 21005KT P6SM BKN200
     FM271100 21010KT P6SM SCT120 BKN200
     FM272100 25011KT P6SM SCT110 BKN160
     FM280200 21010KT P6SM SCT200=



000
FTUS45 KBOU 270857 AAA
TAFDEN
TAF AMD
KDEN 270857Z 2709/2812 21005KT P6SM BKN200
     FM271100 21010KT P6SM SCT120 BKN200
     FM272100 25011KT P6SM SCT110 BKN160
     FM280200 21010KT P6SM SCT200=



000
FTUS45 KBOU 270521
TAFDEN
TAF
KDEN 270521Z 2706/2812 25005KT P6SM SCT200
     FM271000 21010KT P6SM SCT120 BKN200
     FM272100 25011KT P6SM SCT110 BKN160
     FM280200 21010KT P6SM SCT200=



000
FTUS45 KBOU 270521
TAFBJC
TAF
KBJC 270521Z 2706/2806 VRB05KT P6SM FEW200
     FM270900 25011KT P6SM FEW140 BKN200
     FM271700 27014G24KT P6SM SCT100 BKN150
     FM280200 25010KT P6SM FEW110 BKN180=



000
FTUS45 KBOU 270521
TAFAPA
TAF
KAPA 270521Z 2706/2806 VRB04KT P6SM SCT200
     FM271000 20008KT P6SM SCT120 BKN200
     FM272100 25010KT P6SM SCT110 BKN160
     FM280200 21008KT P6SM FEW110 BKN180=



000
FTUS45 KBOU 270521
TAFBJC
TAF
KBJC 270521Z 2706/2806 VRB05KT P6SM FEW200
     FM270900 25011KT P6SM FEW140 BKN200
     FM271700 27014G24KT P6SM SCT100 BKN150
     FM280200 25010KT P6SM FEW110 BKN180=



000
FTUS45 KBOU 270521
TAFDEN
TAF
KDEN 270521Z 2706/2812 25005KT P6SM SCT200
     FM271000 21010KT P6SM SCT120 BKN200
     FM272100 25011KT P6SM SCT110 BKN160
     FM280200 21010KT P6SM SCT200=



000
FTUS45 KBOU 270521
TAFAPA
TAF
KAPA 270521Z 2706/2806 VRB04KT P6SM SCT200
     FM271000 20008KT P6SM SCT120 BKN200
     FM272100 25010KT P6SM SCT110 BKN160
     FM280200 21008KT P6SM FEW110 BKN180=



000
FTUS45 KBOU 270305 AAB
TAFDEN
TAF AMD
KDEN 270305Z 2703/2806 21006KT P6SM FEW150
     FM270600 22012KT P6SM SCT200
     FM271400 23012KT P6SM SCT110 BKN200
     FM272100 25010KT P6SM FEW110 SCT200
     FM280100 21011KT P6SM SCT200=



000
FTUS45 KBOU 270305 AAB
TAFDEN
TAF AMD
KDEN 270305Z 2703/2806 21006KT P6SM FEW150
     FM270600 22012KT P6SM SCT200
     FM271400 23012KT P6SM SCT110 BKN200
     FM272100 25010KT P6SM FEW110 SCT200
     FM280100 21011KT P6SM SCT200=



000
FTUS45 KBOU 270205 AAA
TAFDEN
TAF AMD
KDEN 270205Z 2702/2806 11006KT P6SM FEW140
     FM270300 14008KT P6SM FEW150
     FM270400 19008KT P6SM FEW150
     FM270600 22012KT P6SM SCT200
     FM271400 23012KT P6SM SCT110 BKN200
     FM272100 25010KT P6SM FEW110 SCT200
     FM280100 21011KT P6SM SCT200=



000
FTUS45 KBOU 270205 AAA
TAFDEN
TAF AMD
KDEN 270205Z 2702/2806 11006KT P6SM FEW140
     FM270300 14008KT P6SM FEW150
     FM270400 19008KT P6SM FEW150
     FM270600 22012KT P6SM SCT200
     FM271400 23012KT P6SM SCT110 BKN200
     FM272100 25010KT P6SM FEW110 SCT200
     FM280100 21011KT P6SM SCT200=



000
FTUS45 KBOU 262320
TAFDEN
TAF
KDEN 262320Z 2700/2806 09015KT P6SM FEW060 FEW140
     FM270100 13011KT P6SM FEW150
     FM270200 19008KT P6SM FEW150
     FM270600 22012KT P6SM SCT200
     FM271400 23012KT P6SM SCT110 BKN200
     FM272100 25010KT P6SM FEW110 SCT200
     FM280100 21011KT P6SM SCT200=



000
FTUS45 KBOU 262320
TAFAPA
TAF
KAPA 262320Z 2700/2724 VRB04KT P6SM FEW140
     FM270100 15006KT P6SM FEW140
     FM270300 19009KT P6SM SCT200
     FM271400 22010KT P6SM FEW140 BKN200
     FM272100 25010KT P6SM FEW110 SCT200=



000
FTUS45 KBOU 262320
TAFAPA
TAF
KAPA 262320Z 2700/2724 VRB04KT P6SM FEW140
     FM270100 15006KT P6SM FEW140
     FM270300 19009KT P6SM SCT200
     FM271400 22010KT P6SM FEW140 BKN200
     FM272100 25010KT P6SM FEW110 SCT200=



000
FTUS45 KBOU 262320
TAFBJC
TAF
KBJC 262320Z 2700/2724 01007KT P6SM FEW080 SCT220
     FM270100 VRB05KT P6SM FEW200
     FM271400 23010KT P6SM FEW140 BKN200
     FM272000 26014G24KT P6SM FEW110 SCT200=



000
FTUS45 KBOU 262320
TAFDEN
TAF
KDEN 262320Z 2700/2806 09015KT P6SM FEW060 FEW140
     FM270100 13011KT P6SM FEW150
     FM270200 19008KT P6SM FEW150
     FM270600 22012KT P6SM SCT200
     FM271400 23012KT P6SM SCT110 BKN200
     FM272100 25010KT P6SM FEW110 SCT200
     FM280100 21011KT P6SM SCT200=



000
FTUS45 KBOU 262320
TAFBJC
TAF
KBJC 262320Z 2700/2724 01007KT P6SM FEW080 SCT220
     FM270100 VRB05KT P6SM FEW200
     FM271400 23010KT P6SM FEW140 BKN200
     FM272000 26014G24KT P6SM FEW110 SCT200=



000
FTUS45 KBOU 262213 AAC
TAFDEN
TAF AMD
KDEN 262213Z 2622/2724 07015KT P6SM FEW060 FEW140
     FM270000 13006KT P6SM FEW150
     FM270200 19008KT P6SM FEW150
     FM270600 22012KT P6SM SCT200
     FM271400 23012KT P6SM FEW140 BKN200=



000
FTUS45 KBOU 262213 AAC
TAFDEN
TAF AMD
KDEN 262213Z 2622/2724 07015KT P6SM FEW060 FEW140
     FM270000 13006KT P6SM FEW150
     FM270200 19008KT P6SM FEW150
     FM270600 22012KT P6SM SCT200
     FM271400 23012KT P6SM FEW140 BKN200=



000
FTUS45 KBOU 262143 AAB
TAFDEN
TAF AMD
KDEN 262143Z 2622/2724 07009KT P6SM FEW060 FEW140
     FM270000 13006KT P6SM FEW150
     FM270200 19008KT P6SM FEW150
     FM270600 22012KT P6SM SCT200
     FM271400 23012KT P6SM FEW140 BKN200=



000
FTUS45 KBOU 262143 AAB
TAFDEN
TAF AMD
KDEN 262143Z 2622/2724 07009KT P6SM FEW060 FEW140
     FM270000 13006KT P6SM FEW150
     FM270200 19008KT P6SM FEW150
     FM270600 22012KT P6SM SCT200
     FM271400 23012KT P6SM FEW140 BKN200=



000
FTUS45 KBOU 262100 AAA
TAFDEN
TAF AMD
KDEN 262100Z 2621/2724 16006KT P6SM FEW060 FEW140
     FM270000 13006KT P6SM FEW150
     FM270200 19008KT P6SM FEW150
     FM270600 22012KT P6SM SCT200
     FM271400 23012KT P6SM FEW140 BKN200=



000
FTUS45 KBOU 262100 AAA
TAFDEN
TAF AMD
KDEN 262100Z 2621/2724 16006KT P6SM FEW060 FEW140
     FM270000 13006KT P6SM FEW150
     FM270200 19008KT P6SM FEW150
     FM270600 22012KT P6SM SCT200
     FM271400 23012KT P6SM FEW140 BKN200=



000
FTUS45 KBOU 262012 AAA
TAFBJC
TAF AMD
KBJC 262012Z 2620/2718 12007KT P6SM FEW080 SCT220
     FM270100 VRB06KT P6SM FEW200
     FM271400 23010KT P6SM FEW140 BKN200=



000
FTUS45 KBOU 262012 AAA
TAFBJC
TAF AMD
KBJC 262012Z 2620/2718 12007KT P6SM FEW080 SCT220
     FM270100 VRB06KT P6SM FEW200
     FM271400 23010KT P6SM FEW140 BKN200=



000
FTUS45 KBOU 261728
TAFAPA
TAF
KAPA 261728Z 2618/2718 11009KT P6SM FEW030 FEW140
     FM262000 VRB06KT P6SM FEW140
     FM262100 33010KT P6SM FEW140
     FM270100 VRB06KT P6SM FEW140
     FM270300 19009KT P6SM SCT200
     FM271400 22010KT P6SM FEW140 BKN200=



000
FTUS45 KBOU 261728
TAFDEN
TAF
KDEN 261728Z 2618/2724 09010KT P6SM FEW030 FEW140
     FM262000 08008KT P6SM FEW060 FEW140
     FM270000 13006KT P6SM FEW150
     FM270200 19008KT P6SM FEW150
     FM270600 22012KT P6SM SCT200
     FM271400 23012KT P6SM FEW140 BKN200=



000
FTUS45 KBOU 261728
TAFBJC
TAF
KBJC 261728Z 2618/2718 12007KT P6SM FEW080 FEW140
     FM262000 VRB05KT P6SM FEW080 FEW140
     FM262100 32012G20KT P6SM FEW080 FEW140
     FM270200 26006KT P6SM FEW200
     FM271400 23010KT P6SM FEW140 BKN200=



000
FTUS45 KBOU 261728
TAFDEN
TAF
KDEN 261728Z 2618/2724 09010KT P6SM FEW030 FEW140
     FM262000 08008KT P6SM FEW060 FEW140
     FM270000 13006KT P6SM FEW150
     FM270200 19008KT P6SM FEW150
     FM270600 22012KT P6SM SCT200
     FM271400 23012KT P6SM FEW140 BKN200=



000
FTUS45 KBOU 261728
TAFAPA
TAF
KAPA 261728Z 2618/2718 11009KT P6SM FEW030 FEW140
     FM262000 VRB06KT P6SM FEW140
     FM262100 33010KT P6SM FEW140
     FM270100 VRB06KT P6SM FEW140
     FM270300 19009KT P6SM SCT200
     FM271400 22010KT P6SM FEW140 BKN200=



000
FTUS45 KBOU 261728
TAFBJC
TAF
KBJC 261728Z 2618/2718 12007KT P6SM FEW080 FEW140
     FM262000 VRB05KT P6SM FEW080 FEW140
     FM262100 32012G20KT P6SM FEW080 FEW140
     FM270200 26006KT P6SM FEW200
     FM271400 23010KT P6SM FEW140 BKN200=



000
FTUS45 KBOU 261625 AAC
TAFAPA
TAF AMD
KAPA 261625Z 2616/2712 12010KT P6SM FEW030 SCT150
     FM261800 33007KT P6SM FEW060 SCT150
     FM270100 24006KT P6SM FEW140
     FM270300 21009KT P6SM FEW200=



000
FTUS45 KBOU 261625 AAC
TAFAPA
TAF AMD
KAPA 261625Z 2616/2712 12010KT P6SM FEW030 SCT150
     FM261800 33007KT P6SM FEW060 SCT150
     FM270100 24006KT P6SM FEW140
     FM270300 21009KT P6SM FEW200=



000
FTUS45 KBOU 261507 AAB
TAFAPA
TAF AMD
KAPA 261507Z 2615/2712 14007KT P6SM SCT020 BKN030 BKN150
     FM261630 VRB06KT P6SM FEW030 BKN150
     FM261800 33007KT P6SM FEW060 SCT150
     FM270100 24006KT P6SM FEW140
     FM270300 21009KT P6SM FEW200=



000
FTUS45 KBOU 261507 AAB
TAFAPA
TAF AMD
KAPA 261507Z 2615/2712 14007KT P6SM SCT020 BKN030 BKN150
     FM261630 VRB06KT P6SM FEW030 BKN150
     FM261800 33007KT P6SM FEW060 SCT150
     FM270100 24006KT P6SM FEW140
     FM270300 21009KT P6SM FEW200=



000
FTUS45 KBOU 261505 AAA
TAFBJC
TAF AMD
KBJC 261505Z 2615/2712 12007KT P6SM SCT015 BKN180
      TEMPO 2615/2616 BKN015
     FM261800 35008KT P6SM FEW060 SCT150
     FM262300 VRB05KT P6SM FEW140
     FM270200 23006KT P6SM FEW200=



000
FTUS45 KBOU 261431 AAB
TAFDEN
TAF AMD
KDEN 261431Z 2615/2718 13006KT P6SM SCT020 BKN030 BKN060
     FM261600 10006KT P6SM SCT020 SCT060
     FM261800 08006KT P6SM FEW060 SCT110
     FM270200 21008KT P6SM FEW140
     FM270600 22012KT P6SM FEW200=



000
FTUS45 KBOU 261431 AAB
TAFDEN
TAF AMD
KDEN 261431Z 2615/2718 13006KT P6SM SCT020 BKN030 BKN060
     FM261600 10006KT P6SM SCT020 SCT060
     FM261800 08006KT P6SM FEW060 SCT110
     FM270200 21008KT P6SM FEW140
     FM270600 22012KT P6SM FEW200=



000
FTUS45 KBOU 261300 AAA
TAFAPA
TAF AMD
KAPA 261300Z 2613/2712 14005KT P6SM VCSH SCT009 OVC020
     FM261500 14007KT P6SM SCT015 SCT060
     FM261800 33007KT P6SM FEW060 SCT110
     FM270100 24006KT P6SM FEW140
     FM270300 21009KT P6SM FEW200=



000
FTUS45 KBOU 261300 AAA
TAFAPA
TAF AMD
KAPA 261300Z 2613/2712 14005KT P6SM VCSH SCT009 OVC020
     FM261500 14007KT P6SM SCT015 SCT060
     FM261800 33007KT P6SM FEW060 SCT110
     FM270100 24006KT P6SM FEW140
     FM270300 21009KT P6SM FEW200=



000
FTUS45 KBOU 261259 AAA
TAFDEN
TAF AMD
KDEN 261259Z 2613/2718 08006KT P6SM VCSH SCT020 OVC035
     FM261500 14006KT P6SM SCT015 SCT060
     FM261800 08006KT P6SM FEW060 SCT110
     FM270200 21008KT P6SM FEW140
     FM270600 22012KT P6SM FEW200=



000
FTUS45 KBOU 261120
TAFDEN
TAF
KDEN 261120Z 2612/2718 08006KT P6SM VCSH SCT020 OVC035
      TEMPO 2612/2614 6SM -SN BKN020
     FM261500 14006KT P6SM SCT015 SCT060
     FM261800 08006KT P6SM FEW060 SCT110
     FM270200 21008KT P6SM FEW140
     FM270600 22012KT P6SM FEW200=



000
FTUS45 KBOU 261120
TAFAPA
TAF
KAPA 261120Z 2612/2712 07005KT P6SM VCSH SCT009 OVC015
      TEMPO 2612/2614 6SM -SN BKN009
     FM261500 12007KT P6SM SCT015 SCT060
     FM261800 33007KT P6SM FEW060 SCT110
     FM270100 24006KT P6SM FEW140
     FM270300 21009KT P6SM FEW200=



000
FTUS45 KBOU 261120
TAFDEN
TAF
KDEN 261120Z 2612/2718 08006KT P6SM VCSH SCT020 OVC035
      TEMPO 2612/2614 6SM -SN BKN020
     FM261500 14006KT P6SM SCT015 SCT060
     FM261800 08006KT P6SM FEW060 SCT110
     FM270200 21008KT P6SM FEW140
     FM270600 22012KT P6SM FEW200=



000
FTUS45 KBOU 261120
TAFBJC
TAF
KBJC 261120Z 2612/2712 10007KT P6SM VCSH SCT012 OVC020
      TEMPO 2612/2614 4SM -SN BR BKN012
     FM261500 13005KT P6SM SCT015 SCT060
     FM261800 32008KT P6SM FEW060 SCT110
     FM262300 VRB05KT P6SM FEW140
     FM270200 23006KT P6SM FEW200=



000
FTUS45 KBOU 261120
TAFAPA
TAF
KAPA 261120Z 2612/2712 07005KT P6SM VCSH SCT009 OVC015
      TEMPO 2612/2614 6SM -SN BKN009
     FM261500 12007KT P6SM SCT015 SCT060
     FM261800 33007KT P6SM FEW060 SCT110
     FM270100 24006KT P6SM FEW140
     FM270300 21009KT P6SM FEW200=



000
FTUS45 KBOU 261120
TAFBJC
TAF
KBJC 261120Z 2612/2712 10007KT P6SM VCSH SCT012 OVC020
      TEMPO 2612/2614 4SM -SN BR BKN012
     FM261500 13005KT P6SM SCT015 SCT060
     FM261800 32008KT P6SM FEW060 SCT110
     FM262300 VRB05KT P6SM FEW140
     FM270200 23006KT P6SM FEW200=



000
FTUS45 KBOU 261005 AAB
TAFAPA
TAF AMD
KAPA 261005Z 2610/2706 08008KT P6SM VCSH BKN009 OVC025
      TEMPO 2610/2613 6SM -SN BR BKN007
     FM261500 12007KT P6SM SCT015 SCT060
     FM261800 VRB05KT P6SM FEW060 SCT110
     FM270200 21009KT P6SM FEW140=



000
FTUS45 KBOU 261005 AAB
TAFAPA
TAF AMD
KAPA 261005Z 2610/2706 08008KT P6SM VCSH BKN009 OVC025
      TEMPO 2610/2613 6SM -SN BR BKN007
     FM261500 12007KT P6SM SCT015 SCT060
     FM261800 VRB05KT P6SM FEW060 SCT110
     FM270200 21009KT P6SM FEW140=



000
FTUS45 KBOU 261005 AAB
TAFAPA
TAF AMD
KAPA 261005Z 2610/2706 08008KT P6SM VCSH BKN009 OVC025
      TEMPO 2610/2613 6SM -SN BR BKN007
     FM261500 12007KT P6SM SCT015 SCT060
     FM261800 VRB05KT P6SM FEW060 SCT110
     FM270200 21009KT P6SM FEW140=



000
FTUS45 KBOU 261005 AAB
TAFAPA
TAF AMD
KAPA 261005Z 2610/2706 08008KT P6SM VCSH BKN009 OVC025
      TEMPO 2610/2613 6SM -SN BR BKN007
     FM261500 12007KT P6SM SCT015 SCT060
     FM261800 VRB05KT P6SM FEW060 SCT110
     FM270200 21009KT P6SM FEW140=



000
FTUS45 KBOU 261004 AAD
TAFDEN
TAF AMD
KDEN 261004Z 2610/2712 06007KT P6SM VCSH SCT015 OVC035
      TEMPO 2610/2612 6SM -SN BR BKN015
     FM261500 12007KT P6SM SCT015 SCT060
     FM261800 VRB05KT P6SM FEW060 SCT110
     FM270200 21009KT P6SM FEW140=



000
FTUS45 KBOU 261004 AAD
TAFDEN
TAF AMD
KDEN 261004Z 2610/2712 06007KT P6SM VCSH SCT015 OVC035
      TEMPO 2610/2612 6SM -SN BR BKN015
     FM261500 12007KT P6SM SCT015 SCT060
     FM261800 VRB05KT P6SM FEW060 SCT110
     FM270200 21009KT P6SM FEW140=



000
FTUS45 KBOU 261004 AAD
TAFDEN
TAF AMD
KDEN 261004Z 2610/2712 06007KT P6SM VCSH SCT015 OVC035
      TEMPO 2610/2612 6SM -SN BR BKN015
     FM261500 12007KT P6SM SCT015 SCT060
     FM261800 VRB05KT P6SM FEW060 SCT110
     FM270200 21009KT P6SM FEW140=



000
FTUS45 KBOU 261004 AAD
TAFDEN
TAF AMD
KDEN 261004Z 2610/2712 06007KT P6SM VCSH SCT015 OVC035
      TEMPO 2610/2612 6SM -SN BR BKN015
     FM261500 12007KT P6SM SCT015 SCT060
     FM261800 VRB05KT P6SM FEW060 SCT110
     FM270200 21009KT P6SM FEW140=



000
FTUS45 KBOU 260858 AAC
TAFDEN
TAF AMD
KDEN 260858Z 2609/2712 04009KT P6SM VCSH SCT014 OVC025
      TEMPO 2609/2612 5SM -SN BR BKN014
     FM261500 12007KT P6SM SCT015 SCT060
     FM261800 VRB05KT P6SM FEW060 SCT110
     FM270200 21009KT P6SM FEW140=



000
FTUS45 KBOU 260805 AAB
TAFDEN
TAF AMD
KDEN 260805Z 2608/2712 06006KT P6SM VCSH SCT008 SCT015 OVC025
      TEMPO 2608/2610 5SM -SN BR BKN015
     FM261000 08010KT P6SM VCSH BKN014 OVC025
      TEMPO 2610/2612 5SM -SN BR BKN007
     FM261500 12007KT P6SM SCT015 SCT060
     FM261800 VRB05KT P6SM FEW060 SCT110
     FM270200 21009KT P6SM FEW140=



000
FTUS45 KBOU 260805 AAB
TAFDEN
TAF AMD
KDEN 260805Z 2608/2712 06006KT P6SM VCSH SCT008 SCT015 OVC025
      TEMPO 2608/2610 5SM -SN BR BKN015
     FM261000 08010KT P6SM VCSH BKN014 OVC025
      TEMPO 2610/2612 5SM -SN BR BKN007
     FM261500 12007KT P6SM SCT015 SCT060
     FM261800 VRB05KT P6SM FEW060 SCT110
     FM270200 21009KT P6SM FEW140=



000
FTUS45 KBOU 260700 AAA
TAFBJC
TAF AMD
KBJC 260700Z 2607/2706 09007KT P6SM VCSH SCT008 BKN012 OVC020
      TEMPO 2607/2610 5SM -SN BR BKN008
     FM261000 08010KT P6SM VCSH BKN011 OVC020
      TEMPO 2610/2613 5SM -SN BR BKN007
     FM261500 VRB05KT P6SM SCT015 SCT060
     FM261800 28009KT P6SM FEW060 SCT110=



000
FTUS45 KBOU 260700 AAA
TAFBJC
TAF AMD
KBJC 260700Z 2607/2706 09007KT P6SM VCSH SCT008 BKN012 OVC020
      TEMPO 2607/2610 5SM -SN BR BKN008
     FM261000 08010KT P6SM VCSH BKN011 OVC020
      TEMPO 2610/2613 5SM -SN BR BKN007
     FM261500 VRB05KT P6SM SCT015 SCT060
     FM261800 28009KT P6SM FEW060 SCT110=



000
FTUS45 KBOU 260700 AAA
TAFAPA
TAF AMD
KAPA 260700Z 2607/2706 05008KT P6SM VCSH SCT008 BKN011 OVC080
      TEMPO 2607/2610 3SM -SN BR BKN008
     FM261000 08010KT P6SM VCSH BKN011 OVC020
      TEMPO 2610/2613 5SM -SN BR BKN007
     FM261500 12007KT P6SM SCT015 SCT060
     FM261800 VRB05KT P6SM FEW060 SCT110
     FM270200 21009KT P6SM FEW140=



000
FTUS45 KBOU 260700 AAA
TAFAPA
TAF AMD
KAPA 260700Z 2607/2706 05008KT P6SM VCSH SCT008 BKN011 OVC080
      TEMPO 2607/2610 3SM -SN BR BKN008
     FM261000 08010KT P6SM VCSH BKN011 OVC020
      TEMPO 2610/2613 5SM -SN BR BKN007
     FM261500 12007KT P6SM SCT015 SCT060
     FM261800 VRB05KT P6SM FEW060 SCT110
     FM270200 21009KT P6SM FEW140=



000
FTUS45 KBOU 260659 AAA
TAFDEN
TAF AMD
KDEN 260659Z 2607/2712 06007KT P6SM VCSH SCT008 BKN015 OVC025
      TEMPO 2607/2610 5SM -SN BR BKN008
     FM261000 08010KT P6SM VCSH BKN014 OVC025
      TEMPO 2610/2612 5SM -SN BR BKN007
     FM261500 12007KT P6SM SCT015 SCT060
     FM261800 VRB05KT P6SM FEW060 SCT110
     FM270200 21009KT P6SM FEW140=



000
FTUS45 KBOU 260659 AAA
TAFDEN
TAF AMD
KDEN 260659Z 2607/2712 06007KT P6SM VCSH SCT008 BKN015 OVC025
      TEMPO 2607/2610 5SM -SN BR BKN008
     FM261000 08010KT P6SM VCSH BKN014 OVC025
      TEMPO 2610/2612 5SM -SN BR BKN007
     FM261500 12007KT P6SM SCT015 SCT060
     FM261800 VRB05KT P6SM FEW060 SCT110
     FM270200 21009KT P6SM FEW140=



000
FTUS45 KBOU 260532
TAFDEN
TAF
KDEN 260532Z 2606/2712 06014KT P6SM VCSH SCT008 BKN011 OVC080
      TEMPO 2606/2610 5SM -SN BR BKN008
     FM261000 08010KT P6SM VCSH BKN014 OVC025
      TEMPO 2610/2612 5SM -SN BR BKN007
     FM261500 12007KT P6SM SCT015 SCT060
     FM261800 VRB05KT P6SM FEW060 SCT110
     FM270200 21009KT P6SM FEW140=



000
FTUS45 KBOU 260532
TAFAPA
TAF
KAPA 260532Z 2606/2706 06014KT P6SM VCSH SCT008 BKN011 OVC080
      TEMPO 2606/2610 4SM -SN BR BKN008
     FM261000 08010KT P6SM VCSH BKN011 OVC020
      TEMPO 2610/2613 5SM -SN BR BKN007
     FM261500 12007KT P6SM SCT015 SCT060
     FM261800 VRB05KT P6SM FEW060 SCT110
     FM270200 21009KT P6SM FEW140=



000
FTUS45 KBOU 260532
TAFBJC
TAF
KBJC 260532Z 2606/2706 06014KT P6SM VCSH SCT008 BKN012 OVC020
      TEMPO 2607/2610 5SM -SN BR BKN008
     FM261000 08010KT P6SM VCSH BKN011 OVC020
      TEMPO 2610/2613 5SM -SN BR BKN007
     FM261500 VRB05KT P6SM SCT015 SCT060
     FM261800 28009KT P6SM FEW060 SCT110=



000
FTUS45 KBOU 260532
TAFAPA
TAF
KAPA 260532Z 2606/2706 06014KT P6SM VCSH SCT008 BKN011 OVC080
      TEMPO 2606/2610 4SM -SN BR BKN008
     FM261000 08010KT P6SM VCSH BKN011 OVC020
      TEMPO 2610/2613 5SM -SN BR BKN007
     FM261500 12007KT P6SM SCT015 SCT060
     FM261800 VRB05KT P6SM FEW060 SCT110
     FM270200 21009KT P6SM FEW140=



000
FTUS45 KBOU 260532
TAFDEN
TAF
KDEN 260532Z 2606/2712 06014KT P6SM VCSH SCT008 BKN011 OVC080
      TEMPO 2606/2610 5SM -SN BR BKN008
     FM261000 08010KT P6SM VCSH BKN014 OVC025
      TEMPO 2610/2612 5SM -SN BR BKN007
     FM261500 12007KT P6SM SCT015 SCT060
     FM261800 VRB05KT P6SM FEW060 SCT110
     FM270200 21009KT P6SM FEW140=



000
FTUS45 KBOU 260532
TAFBJC
TAF
KBJC 260532Z 2606/2706 06014KT P6SM VCSH SCT008 BKN012 OVC020
      TEMPO 2607/2610 5SM -SN BR BKN008
     FM261000 08010KT P6SM VCSH BKN011 OVC020
      TEMPO 2610/2613 5SM -SN BR BKN007
     FM261500 VRB05KT P6SM SCT015 SCT060
     FM261800 28009KT P6SM FEW060 SCT110=



000
FTUS45 KBOU 260445 AAD
TAFDEN
TAF AMD
KDEN 260445Z 2605/2706 05014G22KT P6SM VCSH SCT008 BKN020 OVC100
      TEMPO 2605/2607 5SM -SN BR BKN007
     FM260700 07012KT P6SM VCSH BKN012 OVC025
      TEMPO 2607/2611 2SM -SN BR BKN006
     FM261600 17007KT P6SM FEW025 BKN060
     FM261800 26007KT P6SM SCT060 SCT140
     FM270200 22007KT P6SM FEW140=



000
FTUS45 KBOU 260445 AAD
TAFDEN
TAF AMD
KDEN 260445Z 2605/2706 05014G22KT P6SM VCSH SCT008 BKN020 OVC100
      TEMPO 2605/2607 5SM -SN BR BKN007
     FM260700 07012KT P6SM VCSH BKN012 OVC025
      TEMPO 2607/2611 2SM -SN BR BKN006
     FM261600 17007KT P6SM FEW025 BKN060
     FM261800 26007KT P6SM SCT060 SCT140
     FM270200 22007KT P6SM FEW140=



000
FTUS45 KBOU 260445 AAD
TAFDEN
TAF AMD
KDEN 260445Z 2605/2706 05014G22KT P6SM VCSH SCT008 BKN020 OVC100
      TEMPO 2605/2607 5SM -SN BR BKN007
     FM260700 07012KT P6SM VCSH BKN012 OVC025
      TEMPO 2607/2611 2SM -SN BR BKN006
     FM261600 17007KT P6SM FEW025 BKN060
     FM261800 26007KT P6SM SCT060 SCT140
     FM270200 22007KT P6SM FEW140=



000
FTUS45 KBOU 260445 AAD
TAFDEN
TAF AMD
KDEN 260445Z 2605/2706 05014G22KT P6SM VCSH SCT008 BKN020 OVC100
      TEMPO 2605/2607 5SM -SN BR BKN007
     FM260700 07012KT P6SM VCSH BKN012 OVC025
      TEMPO 2607/2611 2SM -SN BR BKN006
     FM261600 17007KT P6SM FEW025 BKN060
     FM261800 26007KT P6SM SCT060 SCT140
     FM270200 22007KT P6SM FEW140=



000
FTUS45 KBOU 260340 AAA
TAFBJC
TAF AMD
KBJC 260340Z 2604/2624 29014KT P6SM SCT090 BKN120
     FM260400 04012G20KT P6SM FEW060 BKN090
     FM260600 07008KT P6SM SCT025 BKN060
     FM260700 04010KT P6SM SCT015 BKN025 BKN050
     FM261600 VRB05KT P6SM FEW025 BKN060
     FM261800 28010KT P6SM SCT060 BKN140=



000
FTUS45 KBOU 260340 AAA
TAFBJC
TAF AMD
KBJC 260340Z 2604/2624 29014KT P6SM SCT090 BKN120
     FM260400 04012G20KT P6SM FEW060 BKN090
     FM260600 07008KT P6SM SCT025 BKN060
     FM260700 04010KT P6SM SCT015 BKN025 BKN050
     FM261600 VRB05KT P6SM FEW025 BKN060
     FM261800 28010KT P6SM SCT060 BKN140=



000
FTUS45 KBOU 260340 AAA
TAFBJC
TAF AMD
KBJC 260340Z 2604/2624 29014KT P6SM SCT090 BKN120
     FM260400 04012G20KT P6SM FEW060 BKN090
     FM260600 07008KT P6SM SCT025 BKN060
     FM260700 04010KT P6SM SCT015 BKN025 BKN050
     FM261600 VRB05KT P6SM FEW025 BKN060
     FM261800 28010KT P6SM SCT060 BKN140=



000
FTUS45 KBOU 260339 AAB
TAFAPA
TAF AMD
KAPA 260339Z 2604/2624 33015KT P6SM FEW100 SCT140
     FM260410 04014G20KT P6SM SCT060 BKN100
     FM260600 07010KT P6SM SCT025 BKN060
     FM260700 11008KT P6SM SCT015 OVC025
      TEMPO 2607/2611 2SM -SN BR BKN015
     FM261600 15007KT P6SM FEW025 BKN060
     FM261800 24007KT P6SM SCT060 SCT140=



000
FTUS45 KBOU 260339 AAB
TAFAPA
TAF AMD
KAPA 260339Z 2604/2624 33015KT P6SM FEW100 SCT140
     FM260410 04014G20KT P6SM SCT060 BKN100
     FM260600 07010KT P6SM SCT025 BKN060
     FM260700 11008KT P6SM SCT015 OVC025
      TEMPO 2607/2611 2SM -SN BR BKN015
     FM261600 15007KT P6SM FEW025 BKN060
     FM261800 24007KT P6SM SCT060 SCT140=



000
FTUS45 KBOU 260339 AAB
TAFAPA
TAF AMD
KAPA 260339Z 2604/2624 33015KT P6SM FEW100 SCT140
     FM260410 04014G20KT P6SM SCT060 BKN100
     FM260600 07010KT P6SM SCT025 BKN060
     FM260700 11008KT P6SM SCT015 OVC025
      TEMPO 2607/2611 2SM -SN BR BKN015
     FM261600 15007KT P6SM FEW025 BKN060
     FM261800 24007KT P6SM SCT060 SCT140=



000
FTUS45 KBOU 260339 AAB
TAFAPA
TAF AMD
KAPA 260339Z 2604/2624 33015KT P6SM FEW100 SCT140
     FM260410 04014G20KT P6SM SCT060 BKN100
     FM260600 07010KT P6SM SCT025 BKN060
     FM260700 11008KT P6SM SCT015 OVC025
      TEMPO 2607/2611 2SM -SN BR BKN015
     FM261600 15007KT P6SM FEW025 BKN060
     FM261800 24007KT P6SM SCT060 SCT140=



000
FTUS45 KBOU 260337 AAC
TAFDEN
TAF AMD
KDEN 260337Z 2604/2706 05014G22KT P6SM SCT060 BKN090
     FM260500 07011KT P6SM VCSH SCT025 BKN060
     FM260700 09008KT P6SM SCT015 OVC025
      TEMPO 2608/2612 2SM -SN BR BKN015
     FM261600 17007KT P6SM FEW025 BKN060
     FM261800 26007KT P6SM SCT060 SCT140
     FM270200 22007KT P6SM FEW140=



000
FTUS45 KBOU 260337 AAC
TAFDEN
TAF AMD
KDEN 260337Z 2604/2706 05014G22KT P6SM SCT060 BKN090
     FM260500 07011KT P6SM VCSH SCT025 BKN060
     FM260700 09008KT P6SM SCT015 OVC025
      TEMPO 2608/2612 2SM -SN BR BKN015
     FM261600 17007KT P6SM FEW025 BKN060
     FM261800 26007KT P6SM SCT060 SCT140
     FM270200 22007KT P6SM FEW140=



000
FTUS45 KBOU 260236 AAB
TAFDEN
TAF AMD
KDEN 260236Z 2603/2706 29014KT P6SM FEW110 SCT140
     FM260315 02012G22KT P6SM SCT060 BKN110
     FM260500 05011KT P6SM VCSH SCT025 BKN060
     FM260700 09008KT P6SM SCT015 OVC025
      TEMPO 2608/2612 2SM -SN BR BKN015
     FM261600 17007KT P6SM FEW025 BKN060
     FM261800 26007KT P6SM SCT060 SCT140
     FM270200 22007KT P6SM FEW140=



000
FTUS45 KBOU 260236 AAB
TAFDEN
TAF AMD
KDEN 260236Z 2603/2706 29014KT P6SM FEW110 SCT140
     FM260315 02012G22KT P6SM SCT060 BKN110
     FM260500 05011KT P6SM VCSH SCT025 BKN060
     FM260700 09008KT P6SM SCT015 OVC025
      TEMPO 2608/2612 2SM -SN BR BKN015
     FM261600 17007KT P6SM FEW025 BKN060
     FM261800 26007KT P6SM SCT060 SCT140
     FM270200 22007KT P6SM FEW140=



000
FTUS45 KBOU 260213 AAA
TAFAPA
TAF AMD
KAPA 260213Z 2602/2624 33011KT P6SM FEW100 SCT140
     FM260500 02012G19KT P6SM SCT080 BKN140
     FM260700 07008KT P6SM SCT025 BKN060
     FM260800 11008KT P6SM SCT015 OVC025
      TEMPO 2609/2613 2SM -SN BR BKN015
     FM261600 15007KT P6SM FEW025 BKN060
     FM261800 24007KT P6SM SCT060 SCT140=



000
FTUS45 KBOU 260213 AAA
TAFAPA
TAF AMD
KAPA 260213Z 2602/2624 33011KT P6SM FEW100 SCT140
     FM260500 02012G19KT P6SM SCT080 BKN140
     FM260700 07008KT P6SM SCT025 BKN060
     FM260800 11008KT P6SM SCT015 OVC025
      TEMPO 2609/2613 2SM -SN BR BKN015
     FM261600 15007KT P6SM FEW025 BKN060
     FM261800 24007KT P6SM SCT060 SCT140=



000
FTUS45 KBOU 260211 AAA
TAFDEN
TAF AMD
KDEN 260211Z 2602/2706 29014KT P6SM FEW110 SCT140
     FM260400 02012G22KT P6SM SCT070 BKN140
     FM260600 05011KT P6SM VCSH SCT025 BKN060
     FM260800 09008KT P6SM SCT015 OVC025
      TEMPO 2609/2613 2SM -SN BR BKN015
     FM261600 17007KT P6SM FEW025 BKN060
     FM261800 26007KT P6SM SCT060 SCT140
     FM270200 22007KT P6SM FEW140=



000
FTUS45 KBOU 260211 AAA
TAFDEN
TAF AMD
KDEN 260211Z 2602/2706 29014KT P6SM FEW110 SCT140
     FM260400 02012G22KT P6SM SCT070 BKN140
     FM260600 05011KT P6SM VCSH SCT025 BKN060
     FM260800 09008KT P6SM SCT015 OVC025
      TEMPO 2609/2613 2SM -SN BR BKN015
     FM261600 17007KT P6SM FEW025 BKN060
     FM261800 26007KT P6SM SCT060 SCT140
     FM270200 22007KT P6SM FEW140=



000
FTUS45 KBOU 252332 CCA
TAFBJC
TAF COR
KBJC 252332Z 2600/2624 27020G34KT P6SM SCT060 BKN100
     FM260400 28014KT P6SM SCT060 BKN100
     FM260700 07008KT P6SM SCT025 BKN060
     FM260800 04010KT P6SM SCT015 BKN025 BKN050 PROB30 2609/2614 2SM
      -SN BR BKN015
     FM261600 VRB05KT P6SM FEW025 BKN060
     FM261800 28010KT P6SM SCT060 BKN140=



000
FTUS45 KBOU 252320
TAFDEN
TAF
KDEN 252320Z 2600/2706 26012KT P6SM FEW100 SCT140
     FM260300 23011KT P6SM SCT080 BKN140
     FM260600 06008KT P6SM SCT025 BKN060
     FM260800 09008KT P6SM SCT015 OVC025 PROB30 2609/2615 2SM -SN BR
      BKN015
     FM261600 17007KT P6SM FEW025 BKN060
     FM261800 26007KT P6SM SCT060 SCT140
     FM270200 22007KT P6SM FEW140=



000
FTUS45 KBOU 252320
TAFBJC
TAF
KBJC 252320Z 2600/2624 30020G34KT P6SM SCT060 BKN100
     FM260400 28014KT P6SM SCT060 BKN100
     FM260700 07008KT P6SM SCT025 BKN060
     FM260800 04010KT P6SM SCT015 BKN025 BKN050 PROB30 2609/2614 2SM
      -SN BR BKN015
     FM261600 VRB05KT P6SM FEW025 BKN060
     FM261800 28010KT P6SM SCT060 BKN140=



000
FTUS45 KBOU 252320
TAFBJC
TAF
KBJC 252320Z 2600/2624 30020G34KT P6SM SCT060 BKN100
     FM260400 28014KT P6SM SCT060 BKN100
     FM260700 07008KT P6SM SCT025 BKN060
     FM260800 04010KT P6SM SCT015 BKN025 BKN050 PROB30 2609/2614 2SM
      -SN BR BKN015
     FM261600 VRB05KT P6SM FEW025 BKN060
     FM261800 28010KT P6SM SCT060 BKN140=



000
FTUS45 KBOU 252320
TAFAPA
TAF
KAPA 252320Z 2600/2624 31018G28KT P6SM FEW100 SCT140
     FM260300 25012KT P6SM SCT080 BKN140
     FM260600 07008KT P6SM SCT025 BKN060
     FM260800 11008KT P6SM SCT015 OVC025 PROB30 2609/2615 2SM -SN BR
      BKN015
     FM261600 15007KT P6SM FEW025 BKN060
     FM261800 24007KT P6SM SCT060 SCT140=



000
FTUS45 KBOU 252320
TAFAPA
TAF
KAPA 252320Z 2600/2624 31018G28KT P6SM FEW100 SCT140
     FM260300 25012KT P6SM SCT080 BKN140
     FM260600 07008KT P6SM SCT025 BKN060
     FM260800 11008KT P6SM SCT015 OVC025 PROB30 2609/2615 2SM -SN BR
      BKN015
     FM261600 15007KT P6SM FEW025 BKN060
     FM261800 24007KT P6SM SCT060 SCT140=



000
FTUS45 KBOU 252320
TAFDEN
TAF
KDEN 252320Z 2600/2706 26012KT P6SM FEW100 SCT140
     FM260300 23011KT P6SM SCT080 BKN140
     FM260600 06008KT P6SM SCT025 BKN060
     FM260800 09008KT P6SM SCT015 OVC025 PROB30 2609/2615 2SM -SN BR
      BKN015
     FM261600 17007KT P6SM FEW025 BKN060
     FM261800 26007KT P6SM SCT060 SCT140
     FM270200 22007KT P6SM FEW140=



000
FTUS45 KBOU 252037 AAA
TAFBJC
TAF AMD
KBJC 252037Z 2521/2618 27025G40KT P6SM FEW110 SCT140 BKN200
     FM260000 30024G36KT P6SM SCT100 BKN140
     FM260800 04010KT P6SM FEW020 BKN070 PROB30 2610/2613 2SM -SHSN
      BKN020
     FM261500 28007KT P6SM FEW025 BKN060=



000
FTUS45 KBOU 252036 AAA
TAFAPA
TAF AMD
KAPA 252036Z 2521/2618 29015G25KT P6SM FEW110 SCT140 BKN200
     FM260000 28012G20KT P6SM SCT100 BKN140
     FM260300 26010KT P6SM SCT080 BKN140
     FM260700 07008KT P6SM SCT020 BKN060 PROB30 2609/2614 2SM -SHSN
      BKN020
     FM261400 12006KT P6SM FEW025 BKN060=



000
FTUS45 KBOU 252036 AAA
TAFAPA
TAF AMD
KAPA 252036Z 2521/2618 29015G25KT P6SM FEW110 SCT140 BKN200
     FM260000 28012G20KT P6SM SCT100 BKN140
     FM260300 26010KT P6SM SCT080 BKN140
     FM260700 07008KT P6SM SCT020 BKN060 PROB30 2609/2614 2SM -SHSN
      BKN020
     FM261400 12006KT P6SM FEW025 BKN060=



000
FTUS45 KBOU 252035 AAA
TAFDEN
TAF AMD
KDEN 252035Z 2521/2624 28016G26KT P6SM FEW100 SCT140 BKN200
     FM260000 26012G22KT P6SM SCT100 BKN140
     FM260300 23011KT P6SM SCT080 BKN140
     FM260600 06008KT P6SM SCT025 BKN060 PROB30 2609/2614 2SM -SHSN
      BKN025
     FM261400 15007KT P6SM FEW025 BKN060
     FM261800 17007KT P6SM SCT060 SCT140=



000
FTUS45 KBOU 252035 AAA
TAFDEN
TAF AMD
KDEN 252035Z 2521/2624 28016G26KT P6SM FEW100 SCT140 BKN200
     FM260000 26012G22KT P6SM SCT100 BKN140
     FM260300 23011KT P6SM SCT080 BKN140
     FM260600 06008KT P6SM SCT025 BKN060 PROB30 2609/2614 2SM -SHSN
      BKN025
     FM261400 15007KT P6SM FEW025 BKN060
     FM261800 17007KT P6SM SCT060 SCT140=



000
FTUS45 KBOU 251746
TAFBJC
TAF
KBJC 251746Z 2518/2618 28030G50KT P6SM SCT100 BKN140
     FM260000 30024G36KT P6SM SCT100 BKN140
     FM260800 04010KT P6SM FEW020 BKN070 PROB30 2610/2613 2SM -SHSN
      BKN020
     FM261500 28007KT P6SM FEW025 BKN060=



000
FTUS45 KBOU 251746
TAFBJC
TAF
KBJC 251746Z 2518/2618 28030G50KT P6SM SCT100 BKN140
     FM260000 30024G36KT P6SM SCT100 BKN140
     FM260800 04010KT P6SM FEW020 BKN070 PROB30 2610/2613 2SM -SHSN
      BKN020
     FM261500 28007KT P6SM FEW025 BKN060=



000
FTUS45 KBOU 251737
TAFAPA
TAF
KAPA 251737Z 2518/2618 30018G30KT P6SM SCT100 BKN140
     FM260000 28012G20KT P6SM SCT100 BKN140
     FM260300 26010KT P6SM SCT080 BKN140
     FM260700 07008KT P6SM SCT020 BKN060 PROB30 2609/2614 2SM -SHSN
      BKN020
     FM261400 12006KT P6SM FEW025 BKN060=



000
FTUS45 KBOU 251737
TAFDEN
TAF
KDEN 251737Z 2518/2624 26018G28KT P6SM SCT120 BKN150
     FM252000 28022G32KT P6SM SCT100 BKN140
     FM260000 26012G22KT P6SM SCT100 BKN140
     FM260300 23011KT P6SM SCT080 BKN140
     FM260600 06008KT P6SM SCT025 BKN060 PROB30 2609/2614 2SM -SHSN
      BKN025
     FM261400 15007KT P6SM FEW025 BKN060
     FM261800 17007KT P6SM SCT060 SCT140=



000
FTUS45 KBOU 251737
TAFAPA
TAF
KAPA 251737Z 2518/2618 30018G30KT P6SM SCT100 BKN140
     FM260000 28012G20KT P6SM SCT100 BKN140
     FM260300 26010KT P6SM SCT080 BKN140
     FM260700 07008KT P6SM SCT020 BKN060 PROB30 2609/2614 2SM -SHSN
      BKN020
     FM261400 12006KT P6SM FEW025 BKN060=



000
FTUS45 KBOU 251737
TAFDEN
TAF
KDEN 251737Z 2518/2624 26018G28KT P6SM SCT120 BKN150
     FM252000 28022G32KT P6SM SCT100 BKN140
     FM260000 26012G22KT P6SM SCT100 BKN140
     FM260300 23011KT P6SM SCT080 BKN140
     FM260600 06008KT P6SM SCT025 BKN060 PROB30 2609/2614 2SM -SHSN
      BKN025
     FM261400 15007KT P6SM FEW025 BKN060
     FM261800 17007KT P6SM SCT060 SCT140=



000
FTUS45 KBOU 251511 AAA
TAFDEN
TAF AMD
KDEN 251511Z 2515/2618 24013KT P6SM FEW100 BKN150
     FM251600 26018G28KT P6SM SCT100 BKN150
     FM252000 28020G32KT P6SM SCT090 BKN140
     FM260200 26008KT P6SM SCT090 BKN140
     FM260400 23008KT P6SM SCT070 BKN140
     FM260600 05011KT P6SM FEW020 BKN070 PROB30 2609/2614 2SM -SHSN
      BKN020 OVC040
     FM261400 15007KT P6SM FEW020 BKN070=



000
FTUS45 KBOU 251511 AAA
TAFDEN
TAF AMD
KDEN 251511Z 2515/2618 24013KT P6SM FEW100 BKN150
     FM251600 26018G28KT P6SM SCT100 BKN150
     FM252000 28020G32KT P6SM SCT090 BKN140
     FM260200 26008KT P6SM SCT090 BKN140
     FM260400 23008KT P6SM SCT070 BKN140
     FM260600 05011KT P6SM FEW020 BKN070 PROB30 2609/2614 2SM -SHSN
      BKN020 OVC040
     FM261400 15007KT P6SM FEW020 BKN070=



000
FTUS45 KBOU 251125
TAFBJC
TAF
KBJC 251125Z 2512/2612 27024G38KT P6SM FEW120 BKN200
     FM251600 28030G50KT P6SM FEW100 BKN150
     FM252200 29025G42KT P6SM FEW090 BKN140
     FM260200 29025G35KT P6SM FEW090 BKN140
     FM260400 27017G28KT P6SM SCT070 BKN140
     FM260600 04008KT P6SM FEW020 BKN070=



000
FTUS45 KBOU 251125
TAFAPA
TAF
KAPA 251125Z 2512/2612 24011KT P6SM SCT140 BKN200
     FM251600 25012G20KT P6SM SCT100 BKN150
     FM251900 30016G28KT P6SM SCT090 BKN140
     FM260200 26008KT P6SM SCT090 BKN140
     FM260400 21008KT P6SM SCT070 BKN140
     FM260700 04008KT P6SM FEW020 BKN070 PROB30 2609/2612 2SM -SHSN
      BKN020 OVC040=



000
FTUS45 KBOU 251125
TAFDEN
TAF
KDEN 251125Z 2512/2618 21013KT P6SM FEW150 BKN200
     FM251400 24013KT P6SM SCT100 BKN150
     FM251700 26018G28KT P6SM SCT100 BKN150
     FM252000 28020G32KT P6SM SCT090 BKN140
     FM260200 26008KT P6SM SCT090 BKN140
     FM260400 23008KT P6SM SCT070 BKN140
     FM260600 05011KT P6SM FEW020 BKN070 PROB30 2609/2614 2SM -SHSN
      BKN020 OVC040
     FM261400 15007KT P6SM FEW020 BKN070=



000
FTUS45 KBOU 251125
TAFAPA
TAF
KAPA 251125Z 2512/2612 24011KT P6SM SCT140 BKN200
     FM251600 25012G20KT P6SM SCT100 BKN150
     FM251900 30016G28KT P6SM SCT090 BKN140
     FM260200 26008KT P6SM SCT090 BKN140
     FM260400 21008KT P6SM SCT070 BKN140
     FM260700 04008KT P6SM FEW020 BKN070 PROB30 2609/2612 2SM -SHSN
      BKN020 OVC040=



000
FTUS45 KBOU 251125
TAFBJC
TAF
KBJC 251125Z 2512/2612 27024G38KT P6SM FEW120 BKN200
     FM251600 28030G50KT P6SM FEW100 BKN150
     FM252200 29025G42KT P6SM FEW090 BKN140
     FM260200 29025G35KT P6SM FEW090 BKN140
     FM260400 27017G28KT P6SM SCT070 BKN140
     FM260600 04008KT P6SM FEW020 BKN070=



000
FTUS45 KBOU 251125
TAFDEN
TAF
KDEN 251125Z 2512/2618 21013KT P6SM FEW150 BKN200
     FM251400 24013KT P6SM SCT100 BKN150
     FM251700 26018G28KT P6SM SCT100 BKN150
     FM252000 28020G32KT P6SM SCT090 BKN140
     FM260200 26008KT P6SM SCT090 BKN140
     FM260400 23008KT P6SM SCT070 BKN140
     FM260600 05011KT P6SM FEW020 BKN070 PROB30 2609/2614 2SM -SHSN
      BKN020 OVC040
     FM261400 15007KT P6SM FEW020 BKN070=



000
FTUS45 KBOU 250850 AAA
TAFAPA
TAF AMD
KAPA 250850Z 2509/2606 21010KT P6SM FEW150 SCT200
     FM251300 24010KT P6SM SCT140 BKN200
     FM251600 26012KT P6SM SCT100 BKN150
     FM251900 30014G24KT P6SM SCT090 BKN140
     FM260200 26008KT P6SM SCT120 BKN200=



000
FTUS45 KBOU 250850 AAA
TAFAPA
TAF AMD
KAPA 250850Z 2509/2606 21010KT P6SM FEW150 SCT200
     FM251300 24010KT P6SM SCT140 BKN200
     FM251600 26012KT P6SM SCT100 BKN150
     FM251900 30014G24KT P6SM SCT090 BKN140
     FM260200 26008KT P6SM SCT120 BKN200=



000
FTUS45 KBOU 250848 AAA
TAFDEN
TAF AMD
KDEN 250848Z 2509/2612 21013KT P6SM FEW150 SCT200
     FM251200 24011KT P6SM SCT140 BKN200
     FM251700 26018G28KT P6SM SCT100 BKN150
     FM252000 29020G32KT P6SM SCT090 BKN140
     FM260200 26008KT P6SM SCT120 BKN180
     FM260400 23008KT P6SM FEW110 SCT150 BKN200
     FM260900 11008KT P6SM FEW020 BKN070=



000
FTUS45 KBOU 250848 AAA
TAFDEN
TAF AMD
KDEN 250848Z 2509/2612 21013KT P6SM FEW150 SCT200
     FM251200 24011KT P6SM SCT140 BKN200
     FM251700 26018G28KT P6SM SCT100 BKN150
     FM252000 29020G32KT P6SM SCT090 BKN140
     FM260200 26008KT P6SM SCT120 BKN180
     FM260400 23008KT P6SM FEW110 SCT150 BKN200
     FM260900 11008KT P6SM FEW020 BKN070=



000
FTUS45 KBOU 250847 AAA
TAFBJC
TAF AMD
KBJC 250847Z 2509/2606 28015G30KT P6SM FEW120 BKN200
     FM251200 28024G38KT P6SM FEW120 BKN200
     FM251500 28030G50KT P6SM FEW100 BKN150
     FM252200 30025G42KT P6SM FEW090 BKN140
     FM260200 29025G35KT P6SM FEW090 BKN140=



000
FTUS45 KBOU 250847 AAA
TAFBJC
TAF AMD
KBJC 250847Z 2509/2606 28015G30KT P6SM FEW120 BKN200
     FM251200 28024G38KT P6SM FEW120 BKN200
     FM251500 28030G50KT P6SM FEW100 BKN150
     FM252200 30025G42KT P6SM FEW090 BKN140
     FM260200 29025G35KT P6SM FEW090 BKN140=



    US Dept of Commerce
    National Oceanic and Atmospheric Administration
    National Weather Service
    1325 East West Highway
    Silver Spring, MD 20910
    Page Author: NWS Internet Services Team
Disclaimer
Information Quality
Credits
Glossary
Privacy Policy
Freedom of Information Act (FOIA)
About Us
Career Opportunities